sensor_id;sensor_type;location;lat;lon;timestamp;pressure;altitude;pressure_sealevel;temperature;humidity
20628;BME280;10473;42.734;24.258;2022-12-29T00:02:05;92740.00;;;4.87;72.28
20628;BME280;10473;42.734;24.258;2022-12-29T00:04:34;92748.63;;;4.79;72.13
20628;BME280;10473;42.734;24.258;2022-12-29T00:07:02;92745.38;;;4.65;73.33
20628;BME280;10473;42.734;24.258;2022-12-29T00:09:30;92750.94;;;4.80;72.42
20628;BME280;10473;42.734;24.258;2022-12-29T00:11:59;92750.19;;;4.88;72.48
20628;BME280;10473;42.734;24.258;2022-12-29T00:14:28;92751.25;;;4.87;72.23
20628;BME280;10473;42.734;24.258;2022-12-29T00:17:13;92750.94;;;4.89;72.22
20628;BME280;10473;42.734;24.258;2022-12-29T00:19:42;92745.09;;;5.00;72.99
20628;BME280;10473;42.734;24.258;2022-12-29T00:22:27;92734.41;;;5.05;73.21
20628;BME280;10473;42.734;24.258;2022-12-29T00:25:13;92735.38;;;5.01;73.05
20628;BME280;10473;42.734;24.258;2022-12-29T00:27:58;92738.72;;;5.10;72.07
20628;BME280;10473;42.734;24.258;2022-12-29T00:30:43;92733.22;;;4.86;73.09
20628;BME280;10473;42.734;24.258;2022-12-29T00:33:30;92748.00;;;4.99;73.06
20628;BME280;10473;42.734;24.258;2022-12-29T00:36:20;92742.44;;;5.09;72.80
20628;BME280;10473;42.734;24.258;2022-12-29T00:38:52;92738.16;;;4.96;72.44
20628;BME280;10473;42.734;24.258;2022-12-29T00:41:37;92745.22;;;5.04;71.89
20628;BME280;10473;42.734;24.258;2022-12-29T00:44:23;92761.13;;;5.07;72.18
20628;BME280;10473;42.734;24.258;2022-12-29T00:46:51;92757.59;;;4.95;72.18
20628;BME280;10473;42.734;24.258;2022-12-29T00:49:19;92763.00;;;4.98;71.71
20628;BME280;10473;42.734;24.258;2022-12-29T00:52:00;92756.34;;;4.84;73.19
20628;BME280;10473;42.734;24.258;2022-12-29T00:54:31;92758.66;;;4.94;72.35
20628;BME280;10473;42.734;24.258;2022-12-29T00:56:59;92756.06;;;4.77;72.39
20628;BME280;10473;42.734;24.258;2022-12-29T00:59:27;92752.03;;;4.71;73.84
20628;BME280;10473;42.734;24.258;2022-12-29T01:01:57;92749.25;;;4.84;72.08
20628;BME280;10473;42.734;24.258;2022-12-29T01:04:26;92750.16;;;4.80;72.06
20628;BME280;10473;42.734;24.258;2022-12-29T01:06:53;92752.63;;;4.85;71.53
20628;BME280;10473;42.734;24.258;2022-12-29T01:09:23;92755.56;;;4.66;72.42
20628;BME280;10473;42.734;24.258;2022-12-29T01:12:09;92752.66;;;4.68;72.00
20628;BME280;10473;42.734;24.258;2022-12-29T01:14:38;92756.34;;;4.67;72.09
20628;BME280;10473;42.734;24.258;2022-12-29T01:17:06;92748.78;;;4.48;73.25
20628;BME280;10473;42.734;24.258;2022-12-29T01:19:34;92753.09;;;4.61;73.57
20628;BME280;10473;42.734;24.258;2022-12-29T01:22:01;92752.63;;;4.51;72.29
20628;BME280;10473;42.734;24.258;2022-12-29T01:24:30;92749.53;;;4.57;72.69
20628;BME280;10473;42.734;24.258;2022-12-29T01:26:58;92737.50;;;4.48;72.88
20628;BME280;10473;42.734;24.258;2022-12-29T01:29:26;92738.88;;;4.45;72.54
20628;BME280;10473;42.734;24.258;2022-12-29T01:31:53;92738.38;;;4.35;72.52
20628;BME280;10473;42.734;24.258;2022-12-29T01:34:22;92735.47;;;4.28;72.93
20628;BME280;10473;42.734;24.258;2022-12-29T01:36:50;92730.81;;;4.33;72.83
20628;BME280;10473;42.734;24.258;2022-12-29T01:39:17;92728.03;;;4.21;73.16
20628;BME280;10473;42.734;24.258;2022-12-29T01:41:46;92719.25;;;4.26;72.86
20628;BME280;10473;42.734;24.258;2022-12-29T01:44:50;92725.88;;;4.23;73.92
20628;BME280;10473;42.734;24.258;2022-12-29T01:47:25;92732.34;;;4.17;74.07
20628;BME280;10473;42.734;24.258;2022-12-29T01:49:55;92719.69;;;3.72;76.04
20628;BME280;10473;42.734;24.258;2022-12-29T01:52:27;92713.94;;;3.92;75.50
20628;BME280;10473;42.734;24.258;2022-12-29T01:54:57;92714.25;;;3.99;75.58
20628;BME280;10473;42.734;24.258;2022-12-29T01:57:29;92701.47;;;4.06;75.19
20628;BME280;10473;42.734;24.258;2022-12-29T02:00:03;92692.31;;;3.86;75.96
20628;BME280;10473;42.734;24.258;2022-12-29T02:02:40;92690.81;;;4.02;75.69
20628;BME280;10473;42.734;24.258;2022-12-29T02:05:13;92693.59;;;4.06;75.24
20628;BME280;10473;42.734;24.258;2022-12-29T02:07:42;92707.50;;;4.15;74.35
20628;BME280;10473;42.734;24.258;2022-12-29T02:10:10;92698.88;;;4.14;74.47
20628;BME280;10473;42.734;24.258;2022-12-29T02:12:45;92702.13;;;4.20;74.48
20628;BME280;10473;42.734;24.258;2022-12-29T02:15:14;92698.09;;;4.14;74.21
20628;BME280;10473;42.734;24.258;2022-12-29T02:17:54;92696.25;;;4.14;74.84
20628;BME280;10473;42.734;24.258;2022-12-29T02:20:47;92691.88;;;3.84;76.54
20628;BME280;10473;42.734;24.258;2022-12-29T02:23:34;92691.09;;;3.84;77.60
20628;BME280;10473;42.734;24.258;2022-12-29T02:26:16;92688.41;;;3.67;77.31
20628;BME280;10473;42.734;24.258;2022-12-29T02:29:06;92699.09;;;3.87;76.95
20628;BME280;10473;42.734;24.258;2022-12-29T02:31:46;92682.97;;;3.55;77.97
20628;BME280;10473;42.734;24.258;2022-12-29T02:34:22;92689.53;;;3.83;77.56
20628;BME280;10473;42.734;24.258;2022-12-29T02:37:01;92685.25;;;3.87;77.43
20628;BME280;10473;42.734;24.258;2022-12-29T02:39:38;92679.38;;;3.90;77.09
20628;BME280;10473;42.734;24.258;2022-12-29T02:42:13;92682.47;;;3.92;76.95
20628;BME280;10473;42.734;24.258;2022-12-29T02:44:52;92681.56;;;4.05;76.84
20628;BME280;10473;42.734;24.258;2022-12-29T02:47:29;92679.59;;;4.10;75.72
20628;BME280;10473;42.734;24.258;2022-12-29T02:50:06;92678.81;;;4.10;76.02
20628;BME280;10473;42.734;24.258;2022-12-29T02:52:38;92679.09;;;4.00;76.19
20628;BME280;10473;42.734;24.258;2022-12-29T02:55:07;92682.38;;;4.14;75.83
20628;BME280;10473;42.734;24.258;2022-12-29T02:57:36;92684.47;;;3.86;77.37
20628;BME280;10473;42.734;24.258;2022-12-29T03:00:07;92686.81;;;4.05;77.02
20628;BME280;10473;42.734;24.258;2022-12-29T03:03:16;92680.59;;;3.84;77.67
20628;BME280;10473;42.734;24.258;2022-12-29T03:06:02;92679.72;;;3.97;76.69
20628;BME280;10473;42.734;24.258;2022-12-29T03:08:39;92679.44;;;4.07;76.77
20628;BME280;10473;42.734;24.258;2022-12-29T03:11:14;92682.81;;;4.07;75.98
20628;BME280;10473;42.734;24.258;2022-12-29T03:14:02;92684.69;;;4.07;76.18
20628;BME280;10473;42.734;24.258;2022-12-29T03:16:53;92679.75;;;4.14;75.62
20628;BME280;10473;42.734;24.258;2022-12-29T03:19:28;92681.28;;;4.15;76.00
20628;BME280;10473;42.734;24.258;2022-12-29T03:22:01;92672.66;;;4.23;75.72
20628;BME280;10473;42.734;24.258;2022-12-29T03:24:57;92678.38;;;4.25;75.24
20628;BME280;10473;42.734;24.258;2022-12-29T03:27:29;92686.38;;;4.28;75.31
20628;BME280;10473;42.734;24.258;2022-12-29T03:30:00;92680.22;;;4.24;75.31
20628;BME280;10473;42.734;24.258;2022-12-29T03:32:33;92686.22;;;4.25;76.23
20628;BME280;10473;42.734;24.258;2022-12-29T03:35:05;92689.66;;;4.34;75.14
20628;BME280;10473;42.734;24.258;2022-12-29T03:37:38;92688.41;;;4.23;74.90
20628;BME280;10473;42.734;24.258;2022-12-29T03:40:08;92681.13;;;4.20;75.08
20628;BME280;10473;42.734;24.258;2022-12-29T03:42:38;92679.88;;;4.09;74.85
20628;BME280;10473;42.734;24.258;2022-12-29T03:45:09;92683.59;;;4.16;74.57
20628;BME280;10473;42.734;24.258;2022-12-29T03:47:37;92688.03;;;3.99;73.99
20628;BME280;10473;42.734;24.258;2022-12-29T03:50:08;92680.06;;;3.56;76.65
20628;BME280;10473;42.734;24.258;2022-12-29T03:52:39;92688.59;;;3.79;75.26
20628;BME280;10473;42.734;24.258;2022-12-29T03:55:08;92675.19;;;3.80;75.49
20628;BME280;10473;42.734;24.258;2022-12-29T03:57:37;92667.78;;;3.74;75.24
20628;BME280;10473;42.734;24.258;2022-12-29T04:00:08;92673.78;;;3.74;75.01
20628;BME280;10473;42.734;24.258;2022-12-29T04:02:45;92684.13;;;3.79;74.04
20628;BME280;10473;42.734;24.258;2022-12-29T04:05:19;92678.31;;;3.52;75.02
20628;BME280;10473;42.734;24.258;2022-12-29T04:07:49;92680.06;;;3.56;74.67
20628;BME280;10473;42.734;24.258;2022-12-29T04:10:17;92682.06;;;3.59;74.41
20628;BME280;10473;42.734;24.258;2022-12-29T04:12:47;92679.13;;;3.61;74.41
20628;BME280;10473;42.734;24.258;2022-12-29T04:15:15;92682.97;;;3.55;74.22
20628;BME280;10473;42.734;24.258;2022-12-29T04:17:43;92673.53;;;3.45;74.96
20628;BME280;10473;42.734;24.258;2022-12-29T04:20:12;92686.50;;;3.50;74.27
20628;BME280;10473;42.734;24.258;2022-12-29T04:23:01;92678.94;;;3.49;74.81
20628;BME280;10473;42.734;24.258;2022-12-29T04:25:30;92682.50;;;3.53;74.76
20628;BME280;10473;42.734;24.258;2022-12-29T04:28:00;92681.84;;;3.47;74.17
20628;BME280;10473;42.734;24.258;2022-12-29T04:30:48;92677.84;;;3.41;75.07
20628;BME280;10473;42.734;24.258;2022-12-29T04:33:30;92681.47;;;3.32;74.31
20628;BME280;10473;42.734;24.258;2022-12-29T04:35:58;92680.91;;;3.13;75.44
20628;BME280;10473;42.734;24.258;2022-12-29T04:38:27;92675.22;;;3.11;75.79
20628;BME280;10473;42.734;24.258;2022-12-29T04:40:55;92690.16;;;2.88;77.33
20628;BME280;10473;42.734;24.258;2022-12-29T04:43:23;92691.22;;;3.09;75.87
20628;BME280;10473;42.734;24.258;2022-12-29T04:46:20;92674.75;;;3.09;75.93
20628;BME280;10473;42.734;24.258;2022-12-29T04:49:08;92677.50;;;3.04;76.46
20628;BME280;10473;42.734;24.258;2022-12-29T04:51:47;92672.56;;;3.02;76.16
20628;BME280;10473;42.734;24.258;2022-12-29T04:54:18;92670.88;;;3.06;75.82
20628;BME280;10473;42.734;24.258;2022-12-29T04:56:53;92682.13;;;3.07;76.19
20628;BME280;10473;42.734;24.258;2022-12-29T04:59:21;92690.34;;;3.14;75.60
20628;BME280;10473;42.734;24.258;2022-12-29T05:01:52;92672.03;;;2.92;76.61
20628;BME280;10473;42.734;24.258;2022-12-29T05:04:19;92670.22;;;3.01;76.69
20628;BME280;10473;42.734;24.258;2022-12-29T05:06:47;92674.41;;;2.80;77.64
20628;BME280;10473;42.734;24.258;2022-12-29T05:09:18;92669.56;;;2.95;77.52
20628;BME280;10473;42.734;24.258;2022-12-29T05:11:46;92669.31;;;3.05;76.70
20628;BME280;10473;42.734;24.258;2022-12-29T05:14:14;92668.72;;;3.08;76.41
20628;BME280;10473;42.734;24.258;2022-12-29T05:16:43;92675.75;;;2.99;76.75
20628;BME280;10473;42.734;24.258;2022-12-29T05:19:10;92683.66;;;3.08;76.86
20628;BME280;10473;42.734;24.258;2022-12-29T05:21:38;92677.13;;;2.97;76.93
20628;BME280;10473;42.734;24.258;2022-12-29T05:24:07;92678.34;;;2.91;77.15
20628;BME280;10473;42.734;24.258;2022-12-29T05:26:36;92678.78;;;2.92;77.04
20628;BME280;10473;42.734;24.258;2022-12-29T05:29:23;92677.25;;;2.92;77.42
20628;BME280;10473;42.734;24.258;2022-12-29T05:31:51;92680.72;;;2.57;78.18
20628;BME280;10473;42.734;24.258;2022-12-29T05:34:19;92679.91;;;2.70;78.32
20628;BME280;10473;42.734;24.258;2022-12-29T05:36:48;92686.25;;;2.77;77.67
20628;BME280;10473;42.734;24.258;2022-12-29T05:39:15;92679.00;;;2.74;77.64
20628;BME280;10473;42.734;24.258;2022-12-29T05:41:48;92684.16;;;2.88;76.30
20628;BME280;10473;42.734;24.258;2022-12-29T05:44:46;92680.97;;;2.69;77.64
20628;BME280;10473;42.734;24.258;2022-12-29T05:47:36;92686.19;;;2.69;77.31
20628;BME280;10473;42.734;24.258;2022-12-29T05:50:29;92686.19;;;2.69;77.58
20628;BME280;10473;42.734;24.258;2022-12-29T05:53:11;92690.66;;;2.68;77.87
20628;BME280;10473;42.734;24.258;2022-12-29T05:55:39;92693.22;;;2.60;78.45
20628;BME280;10473;42.734;24.258;2022-12-29T05:58:08;92694.59;;;2.43;79.13
20628;BME280;10473;42.734;24.258;2022-12-29T06:00:36;92704.75;;;2.59;78.72
20628;BME280;10473;42.734;24.258;2022-12-29T06:03:05;92701.41;;;2.67;78.43
20628;BME280;10473;42.734;24.258;2022-12-29T06:05:32;92708.19;;;2.67;78.78
20628;BME280;10473;42.734;24.258;2022-12-29T06:08:00;92707.88;;;2.69;78.83
20628;BME280;10473;42.734;24.258;2022-12-29T06:10:28;92707.47;;;2.76;78.53
20628;BME280;10473;42.734;24.258;2022-12-29T06:13:01;92714.88;;;2.74;78.39
20628;BME280;10473;42.734;24.258;2022-12-29T06:15:33;92704.50;;;2.91;78.02
20628;BME280;10473;42.734;24.258;2022-12-29T06:18:02;92709.81;;;3.08;78.14
20628;BME280;10473;42.734;24.258;2022-12-29T06:20:30;92718.81;;;3.15;77.89
20628;BME280;10473;42.734;24.258;2022-12-29T06:22:57;92720.41;;;3.25;77.76
20628;BME280;10473;42.734;24.258;2022-12-29T06:25:25;92725.66;;;3.25;77.30
20628;BME280;10473;42.734;24.258;2022-12-29T06:27:53;92715.06;;;3.30;77.19
20628;BME280;10473;42.734;24.258;2022-12-29T06:30:22;92723.06;;;3.33;76.64
20628;BME280;10473;42.734;24.258;2022-12-29T06:32:51;92728.75;;;3.57;76.90
20628;BME280;10473;42.734;24.258;2022-12-29T06:35:20;92733.28;;;3.74;76.48
20628;BME280;10473;42.734;24.258;2022-12-29T06:37:50;92723.84;;;4.12;75.50
20628;BME280;10473;42.734;24.258;2022-12-29T06:40:19;92728.09;;;4.47;75.12
20628;BME280;10473;42.734;24.258;2022-12-29T06:43:08;92731.81;;;4.63;73.14
20628;BME280;10473;42.734;24.258;2022-12-29T06:46:05;92730.41;;;4.57;72.88
20628;BME280;10473;42.734;24.258;2022-12-29T06:48:34;92733.03;;;4.65;72.68
20628;BME280;10473;42.734;24.258;2022-12-29T06:51:02;92730.09;;;4.75;71.58
20628;BME280;10473;42.734;24.258;2022-12-29T06:53:31;92728.69;;;5.20;72.64
20628;BME280;10473;42.734;24.258;2022-12-29T06:55:59;92730.63;;;5.49;71.17
20628;BME280;10473;42.734;24.258;2022-12-29T06:58:27;92728.88;;;6.16;70.32
20628;BME280;10473;42.734;24.258;2022-12-29T07:00:54;92736.00;;;6.44;69.05
20628;BME280;10473;42.734;24.258;2022-12-29T07:03:22;92742.19;;;7.10;67.54
20628;BME280;10473;42.734;24.258;2022-12-29T07:05:51;92740.19;;;7.60;65.51
20628;BME280;10473;42.734;24.258;2022-12-29T07:08:20;92739.06;;;8.17;63.12
20628;BME280;10473;42.734;24.258;2022-12-29T07:10:48;92750.56;;;8.57;62.52
20628;BME280;10473;42.734;24.258;2022-12-29T07:13:15;92746.56;;;9.27;60.39
20628;BME280;10473;42.734;24.258;2022-12-29T07:15:43;92747.09;;;9.60;59.06
20628;BME280;10473;42.734;24.258;2022-12-29T07:18:10;92747.03;;;10.30;56.62
20628;BME280;10473;42.734;24.258;2022-12-29T07:20:38;92736.31;;;9.96;56.07
20628;BME280;10473;42.734;24.258;2022-12-29T07:23:07;92742.84;;;10.95;56.22
20628;BME280;10473;42.734;24.258;2022-12-29T07:25:35;92737.16;;;11.12;53.63
20628;BME280;10473;42.734;24.258;2022-12-29T07:28:03;92740.84;;;11.80;53.21
20628;BME280;10473;42.734;24.258;2022-12-29T07:30:31;92733.72;;;11.65;51.70
20628;BME280;10473;42.734;24.258;2022-12-29T07:32:59;92736.91;;;12.38;51.57
20628;BME280;10473;42.734;24.258;2022-12-29T07:35:26;92740.72;;;12.63;49.02
20628;BME280;10473;42.734;24.258;2022-12-29T07:37:54;92744.44;;;12.81;49.28
20628;BME280;10473;42.734;24.258;2022-12-29T07:40:23;92744.81;;;13.05;49.26
20628;BME280;10473;42.734;24.258;2022-12-29T07:42:51;92737.41;;;13.18;49.33
20628;BME280;10473;42.734;24.258;2022-12-29T07:45:26;92741.34;;;13.31;48.06
20628;BME280;10473;42.734;24.258;2022-12-29T07:48:04;92752.72;;;13.87;47.07
20628;BME280;10473;42.734;24.258;2022-12-29T07:50:33;92749.94;;;13.80;47.12
20628;BME280;10473;42.734;24.258;2022-12-29T07:53:01;92748.38;;;14.08;46.38
20628;BME280;10473;42.734;24.258;2022-12-29T07:55:30;92746.69;;;14.30;45.45
20628;BME280;10473;42.734;24.258;2022-12-29T07:57:58;92737.25;;;14.86;44.54
20628;BME280;10473;42.734;24.258;2022-12-29T08:00:25;92743.53;;;15.11;43.63
20628;BME280;10473;42.734;24.258;2022-12-29T08:02:53;92746.84;;;15.52;42.24
20628;BME280;10473;42.734;24.258;2022-12-29T08:05:21;92747.78;;;15.87;42.49
20628;BME280;10473;42.734;24.258;2022-12-29T08:07:49;92746.97;;;15.76;41.44
20628;BME280;10473;42.734;24.258;2022-12-29T08:10:16;92749.47;;;16.41;41.42
20628;BME280;10473;42.734;24.258;2022-12-29T08:12:46;92749.53;;;17.00;39.29
20628;BME280;10473;42.734;24.258;2022-12-29T08:15:13;92748.00;;;16.89;39.35
20628;BME280;10473;42.734;24.258;2022-12-29T08:17:41;92754.06;;;17.35;38.77
20628;BME280;10473;42.734;24.258;2022-12-29T08:20:09;92757.88;;;17.62;38.27
20628;BME280;10473;42.734;24.258;2022-12-29T08:22:37;92755.47;;;17.92;37.10
20628;BME280;10473;42.734;24.258;2022-12-29T08:25:05;92754.63;;;18.09;37.23
20628;BME280;10473;42.734;24.258;2022-12-29T08:27:33;92755.38;;;18.13;37.25
20628;BME280;10473;42.734;24.258;2022-12-29T08:30:02;92753.78;;;18.26;37.01
20628;BME280;10473;42.734;24.258;2022-12-29T08:32:31;92751.25;;;18.70;35.24
20628;BME280;10473;42.734;24.258;2022-12-29T08:34:59;92743.78;;;18.37;36.19
20628;BME280;10473;42.734;24.258;2022-12-29T08:37:27;92743.38;;;18.93;35.39
20628;BME280;10473;42.734;24.258;2022-12-29T08:39:55;92736.59;;;19.29;34.84
20628;BME280;10473;42.734;24.258;2022-12-29T08:42:24;92735.41;;;19.33;34.67
20628;BME280;10473;42.734;24.258;2022-12-29T08:44:57;92733.63;;;19.13;35.17
20628;BME280;10473;42.734;24.258;2022-12-29T08:47:26;92734.75;;;19.22;34.42
20628;BME280;10473;42.734;24.258;2022-12-29T08:49:54;92734.72;;;19.63;34.00
20628;BME280;10473;42.734;24.258;2022-12-29T08:52:21;92741.72;;;20.24;33.49
20628;BME280;10473;42.734;24.258;2022-12-29T08:54:49;92730.84;;;20.31;32.69
20628;BME280;10473;42.734;24.258;2022-12-29T08:57:17;92738.28;;;20.76;32.38
20628;BME280;10473;42.734;24.258;2022-12-29T08:59:57;92729.91;;;21.20;31.07
20628;BME280;10473;42.734;24.258;2022-12-29T09:02:26;92732.78;;;21.79;31.29
20628;BME280;10473;42.734;24.258;2022-12-29T09:04:54;92735.66;;;21.88;31.03
20628;BME280;10473;42.734;24.258;2022-12-29T09:07:23;92722.25;;;22.04;30.54
20628;BME280;10473;42.734;24.258;2022-12-29T09:09:51;92728.63;;;22.68;30.21
20628;BME280;10473;42.734;24.258;2022-12-29T09:12:18;92731.22;;;23.23;29.66
20628;BME280;10473;42.734;24.258;2022-12-29T09:14:46;92725.38;;;23.41;29.26
20628;BME280;10473;42.734;24.258;2022-12-29T09:17:14;92724.94;;;23.87;28.66
20628;BME280;10473;42.734;24.258;2022-12-29T09:20:00;92720.97;;;23.91;28.23
20628;BME280;10473;42.734;24.258;2022-12-29T09:22:28;92715.63;;;23.43;28.40
20628;BME280;10473;42.734;24.258;2022-12-29T09:24:55;92724.66;;;24.13;28.56
20628;BME280;10473;42.734;24.258;2022-12-29T09:27:23;92722.66;;;24.55;28.92
20628;BME280;10473;42.734;24.258;2022-12-29T09:29:51;92722.59;;;23.89;27.83
20628;BME280;10473;42.734;24.258;2022-12-29T09:32:18;92712.13;;;24.32;28.46
20628;BME280;10473;42.734;24.258;2022-12-29T09:34:46;92721.28;;;24.63;27.33
20628;BME280;10473;42.734;24.258;2022-12-29T09:37:15;92715.75;;;23.24;28.84
20628;BME280;10473;42.734;24.258;2022-12-29T09:39:43;92707.63;;;23.40;29.44
20628;BME280;10473;42.734;24.258;2022-12-29T09:42:14;92711.34;;;23.30;29.01
20628;BME280;10473;42.734;24.258;2022-12-29T09:44:55;92705.50;;;24.45;27.63
20628;BME280;10473;42.734;24.258;2022-12-29T09:47:26;92702.97;;;24.92;27.86
20628;BME280;10473;42.734;24.258;2022-12-29T09:49:58;92708.59;;;25.10;26.49
20628;BME280;10473;42.734;24.258;2022-12-29T09:52:32;92695.94;;;25.54;26.92
20628;BME280;10473;42.734;24.258;2022-12-29T09:55:04;92703.13;;;25.48;26.86
20628;BME280;10473;42.734;24.258;2022-12-29T09:57:35;92700.41;;;26.46;25.94
20628;BME280;10473;42.734;24.258;2022-12-29T10:00:10;92699.22;;;27.08;25.12
20628;BME280;10473;42.734;24.258;2022-12-29T10:02:42;92700.84;;;26.97;24.99
20628;BME280;10473;42.734;24.258;2022-12-29T10:05:22;92693.19;;;27.53;25.01
20628;BME280;10473;42.734;24.258;2022-12-29T10:08:06;92692.44;;;28.33;24.94
20628;BME280;10473;42.734;24.258;2022-12-29T10:10:40;92689.13;;;28.02;24.25
20628;BME280;10473;42.734;24.258;2022-12-29T10:13:26;92683.19;;;28.58;24.06
20628;BME280;10473;42.734;24.258;2022-12-29T10:16:02;92683.03;;;29.03;23.38
20628;BME280;10473;42.734;24.258;2022-12-29T10:18:47;92674.38;;;28.63;23.69
20628;BME280;10473;42.734;24.258;2022-12-29T10:21:27;92670.31;;;29.00;23.66
20628;BME280;10473;42.734;24.258;2022-12-29T10:24:04;92659.41;;;28.49;23.71
20628;BME280;10473;42.734;24.258;2022-12-29T10:26:37;92662.31;;;28.78;23.53
20628;BME280;10473;42.734;24.258;2022-12-29T10:29:14;92665.59;;;29.33;23.11
20628;BME280;10473;42.734;24.258;2022-12-29T10:31:44;92656.78;;;28.64;24.70
20628;BME280;10473;42.734;24.258;2022-12-29T10:34:20;92656.22;;;28.92;23.58
20628;BME280;10473;42.734;24.258;2022-12-29T10:36:52;92644.75;;;27.75;24.48
20628;BME280;10473;42.734;24.258;2022-12-29T10:39:29;92642.63;;;27.61;24.81
20628;BME280;10473;42.734;24.258;2022-12-29T10:42:04;92646.84;;;26.25;26.64
20628;BME280;10473;42.734;24.258;2022-12-29T10:44:37;92641.78;;;27.06;25.99
20628;BME280;10473;42.734;24.258;2022-12-29T10:47:12;92640.34;;;27.32;25.85
20628;BME280;10473;42.734;24.258;2022-12-29T10:49:42;92642.72;;;28.56;24.88
20628;BME280;10473;42.734;24.258;2022-12-29T10:52:11;92640.97;;;28.08;24.49
20628;BME280;10473;42.734;24.258;2022-12-29T10:54:45;92647.72;;;28.99;23.76
20628;BME280;10473;42.734;24.258;2022-12-29T10:57:24;92634.34;;;28.00;24.38
20628;BME280;10473;42.734;24.258;2022-12-29T10:59:53;92638.56;;;28.19;24.35
20628;BME280;10473;42.734;24.258;2022-12-29T11:02:53;92637.34;;;28.02;24.30
20628;BME280;10473;42.734;24.258;2022-12-29T11:05:33;92634.97;;;28.96;24.62
20628;BME280;10473;42.734;24.258;2022-12-29T11:08:08;92634.25;;;28.54;24.37
20628;BME280;10473;42.734;24.258;2022-12-29T11:10:40;92629.69;;;28.93;24.15
20628;BME280;10473;42.734;24.258;2022-12-29T11:13:13;92629.84;;;28.98;24.17
20628;BME280;10473;42.734;24.258;2022-12-29T11:15:43;92631.31;;;27.80;24.08
20628;BME280;10473;42.734;24.258;2022-12-29T11:18:19;92630.91;;;28.50;24.42
20628;BME280;10473;42.734;24.258;2022-12-29T11:20:48;92625.78;;;28.43;23.97
20628;BME280;10473;42.734;24.258;2022-12-29T11:23:27;92629.84;;;28.98;23.86
20628;BME280;10473;42.734;24.258;2022-12-29T11:26:13;92617.19;;;29.33;23.34
20628;BME280;10473;42.734;24.258;2022-12-29T11:28:44;92622.34;;;29.78;22.91
20628;BME280;10473;42.734;24.258;2022-12-29T11:31:16;92623.13;;;29.55;22.60
20628;BME280;10473;42.734;24.258;2022-12-29T11:33:44;92622.59;;;29.66;22.38
20628;BME280;10473;42.734;24.258;2022-12-29T11:36:14;92618.97;;;29.13;23.07
20628;BME280;10473;42.734;24.258;2022-12-29T11:38:46;92620.91;;;29.21;23.63
20628;BME280;10473;42.734;24.258;2022-12-29T11:41:22;92624.19;;;29.58;22.88
20628;BME280;10473;42.734;24.258;2022-12-29T11:43:51;92621.25;;;29.85;22.39
20628;BME280;10473;42.734;24.258;2022-12-29T11:46:25;92622.91;;;30.49;21.86
20628;BME280;10473;42.734;24.258;2022-12-29T11:48:56;92619.03;;;30.70;22.22
20628;BME280;10473;42.734;24.258;2022-12-29T11:51:27;92623.16;;;31.29;20.84
20628;BME280;10473;42.734;24.258;2022-12-29T11:53:58;92620.97;;;31.33;21.71
20628;BME280;10473;42.734;24.258;2022-12-29T11:56:36;92621.88;;;31.65;21.04
20628;BME280;10473;42.734;24.258;2022-12-29T11:59:34;92605.75;;;31.87;21.16
20628;BME280;10473;42.734;24.258;2022-12-29T12:02:23;92607.97;;;29.92;22.31
20628;BME280;10473;42.734;24.258;2022-12-29T12:04:56;92609.66;;;29.90;21.63
20628;BME280;10473;42.734;24.258;2022-12-29T12:07:36;92613.19;;;30.77;22.16
20628;BME280;10473;42.734;24.258;2022-12-29T12:10:12;92609.16;;;30.44;21.97
20628;BME280;10473;42.734;24.258;2022-12-29T12:12:48;92616.66;;;30.63;21.30
20628;BME280;10473;42.734;24.258;2022-12-29T12:15:20;92611.28;;;31.18;21.30
20628;BME280;10473;42.734;24.258;2022-12-29T12:18:00;92607.22;;;31.68;20.71
20628;BME280;10473;42.734;24.258;2022-12-29T12:20:38;92608.53;;;31.72;20.28
20628;BME280;10473;42.734;24.258;2022-12-29T12:23:17;92606.94;;;32.31;20.66
20628;BME280;10473;42.734;24.258;2022-12-29T12:25:54;92607.03;;;31.91;20.41
20628;BME280;10473;42.734;24.258;2022-12-29T12:28:30;92593.69;;;32.55;20.14
20628;BME280;10473;42.734;24.258;2022-12-29T12:31:01;92597.19;;;32.05;20.35
20628;BME280;10473;42.734;24.258;2022-12-29T12:33:36;92591.66;;;31.99;20.32
20628;BME280;10473;42.734;24.258;2022-12-29T12:36:31;92590.16;;;31.38;20.78
20628;BME280;10473;42.734;24.258;2022-12-29T12:39:08;92596.38;;;29.97;21.90
20628;BME280;10473;42.734;24.258;2022-12-29T12:41:47;92591.09;;;29.32;22.48
20628;BME280;10473;42.734;24.258;2022-12-29T12:44:27;92584.63;;;26.97;24.53
20628;BME280;10473;42.734;24.258;2022-12-29T12:47:27;92578.13;;;26.95;24.74
20628;BME280;10473;42.734;24.258;2022-12-29T12:50:27;92583.25;;;25.15;25.62
20628;BME280;10473;42.734;24.258;2022-12-29T12:56:31;92579.34;;;23.09;28.36
20628;BME280;10473;42.734;24.258;2022-12-29T12:59:06;92578.75;;;22.05;30.18
20628;BME280;10473;42.734;24.258;2022-12-29T13:01:50;92584.69;;;21.42;30.70
20628;BME280;10473;42.734;24.258;2022-12-29T13:04:41;92584.91;;;20.89;31.42
20628;BME280;10473;42.734;24.258;2022-12-29T13:07:20;92575.91;;;20.53;32.24
20628;BME280;10473;42.734;24.258;2022-12-29T13:10:08;92572.50;;;20.26;32.73
20628;BME280;10473;42.734;24.258;2022-12-29T13:12:46;92569.81;;;19.73;33.13
20628;BME280;10473;42.734;24.258;2022-12-29T13:15:22;92573.91;;;19.51;34.17
20628;BME280;10473;42.734;24.258;2022-12-29T13:18:03;92577.56;;;19.00;34.69
20628;BME280;10473;42.734;24.258;2022-12-29T13:20:38;92573.38;;;18.96;35.59
20628;BME280;10473;42.734;24.258;2022-12-29T13:23:14;92573.88;;;18.87;35.48
20628;BME280;10473;42.734;24.258;2022-12-29T13:25:48;92576.66;;;19.14;35.73
20628;BME280;10473;42.734;24.258;2022-12-29T13:28:22;92565.75;;;18.54;35.74
20628;BME280;10473;42.734;24.258;2022-12-29T13:30:59;92573.25;;;18.25;36.45
20628;BME280;10473;42.734;24.258;2022-12-29T13:33:37;92571.34;;;18.26;37.16